sensor_id;sensor_type;location;lat;lon;timestamp;P1;durP1;ratioP1;P2;durP2;ratioP2
12631;SDS011;6381;45.748;12.106;2024-01-30T00:01:56;37.47;;;33.40;;
12631;SDS011;6381;45.748;12.106;2024-01-30T00:04:26;37.93;;;33.83;;
12631;SDS011;6381;45.748;12.106;2024-01-30T00:06:56;37.93;;;34.00;;
12631;SDS011;6381;45.748;12.106;2024-01-30T00:09:25;37.07;;;33.37;;
12631;SDS011;6381;45.748;12.106;2024-01-30T00:11:56;38.37;;;34.30;;
12631;SDS011;6381;45.748;12.106;2024-01-30T00:14:27;37.53;;;33.83;;
12631;SDS011;6381;45.748;12.106;2024-01-30T00:16:57;37.30;;;33.17;;
12631;SDS011;6381;45.748;12.106;2024-01-30T00:19:27;37.97;;;33.97;;
12631;SDS011;6381;45.748;12.106;2024-01-30T00:21:57;39.03;;;35.03;;
12631;SDS011;6381;45.748;12.106;2024-01-30T00:24:27;37.63;;;33.60;;
12631;SDS011;6381;45.748;12.106;2024-01-30T00:26:56;37.47;;;33.60;;
12631;SDS011;6381;45.748;12.106;2024-01-30T00:29:28;41.33;;;37.07;;
12631;SDS011;6381;45.748;12.106;2024-01-30T00:32:01;40.70;;;36.40;;
12631;SDS011;6381;45.748;12.106;2024-01-30T00:34:31;41.13;;;36.67;;
12631;SDS011;6381;45.748;12.106;2024-01-30T00:37:00;41.20;;;36.83;;
12631;SDS011;6381;45.748;12.106;2024-01-30T00:39:30;35.93;;;32.20;;
12631;SDS011;6381;45.748;12.106;2024-01-30T00:42:00;34.13;;;30.67;;
12631;SDS011;6381;45.748;12.106;2024-01-30T00:44:31;32.07;;;28.87;;
12631;SDS011;6381;45.748;12.106;2024-01-30T00:47:05;30.63;;;27.53;;
12631;SDS011;6381;45.748;12.106;2024-01-30T00:49:35;30.10;;;26.90;;
12631;SDS011;6381;45.748;12.106;2024-01-30T00:52:06;27.70;;;24.70;;
12631;SDS011;6381;45.748;12.106;2024-01-30T00:54:36;27.70;;;24.77;;
12631;SDS011;6381;45.748;12.106;2024-01-30T00:57:06;27.13;;;24.23;;
12631;SDS011;6381;45.748;12.106;2024-01-30T00:59:37;26.67;;;23.87;;
12631;SDS011;6381;45.748;12.106;2024-01-30T01:02:07;26.60;;;23.77;;
12631;SDS011;6381;45.748;12.106;2024-01-30T01:04:37;26.17;;;23.47;;
12631;SDS011;6381;45.748;12.106;2024-01-30T01:07:06;26.50;;;23.90;;
12631;SDS011;6381;45.748;12.106;2024-01-30T01:09:36;26.73;;;24.13;;
12631;SDS011;6381;45.748;12.106;2024-01-30T01:12:06;29.07;;;26.03;;
12631;SDS011;6381;45.748;12.106;2024-01-30T01:14:35;29.73;;;26.53;;
12631;SDS011;6381;45.748;12.106;2024-01-30T01:17:07;29.33;;;26.37;;
12631;SDS011;6381;45.748;12.106;2024-01-30T01:19:37;29.17;;;26.07;;
12631;SDS011;6381;45.748;12.106;2024-01-30T01:22:07;29.77;;;26.63;;
12631;SDS011;6381;45.748;12.106;2024-01-30T01:24:36;28.87;;;25.87;;
12631;SDS011;6381;45.748;12.106;2024-01-30T01:27:06;30.23;;;27.13;;
12631;SDS011;6381;45.748;12.106;2024-01-30T01:29:37;30.17;;;27.27;;
12631;SDS011;6381;45.748;12.106;2024-01-30T01:32:08;28.67;;;25.73;;
12631;SDS011;6381;45.748;12.106;2024-01-30T01:34:38;28.53;;;25.63;;
12631;SDS011;6381;45.748;12.106;2024-01-30T01:37:08;28.70;;;25.70;;
12631;SDS011;6381;45.748;12.106;2024-01-30T01:39:38;30.87;;;27.53;;
12631;SDS011;6381;45.748;12.106;2024-01-30T01:42:08;30.63;;;27.40;;
12631;SDS011;6381;45.748;12.106;2024-01-30T01:44:37;30.27;;;27.17;;
12631;SDS011;6381;45.748;12.106;2024-01-30T01:47:09;30.13;;;26.93;;
12631;SDS011;6381;45.748;12.106;2024-01-30T01:49:39;29.40;;;26.40;;
12631;SDS011;6381;45.748;12.106;2024-01-30T01:52:08;29.97;;;26.43;;
12631;SDS011;6381;45.748;12.106;2024-01-30T01:54:38;28.93;;;25.83;;
12631;SDS011;6381;45.748;12.106;2024-01-30T01:57:08;27.70;;;24.90;;
12631;SDS011;6381;45.748;12.106;2024-01-30T01:59:38;27.10;;;24.20;;
12631;SDS011;6381;45.748;12.106;2024-01-30T02:02:10;28.00;;;25.13;;
12631;SDS011;6381;45.748;12.106;2024-01-30T02:04:43;28.00;;;25.10;;
12631;SDS011;6381;45.748;12.106;2024-01-30T02:07:12;28.03;;;25.23;;
12631;SDS011;6381;45.748;12.106;2024-01-30T02:09:42;27.53;;;24.73;;
12631;SDS011;6381;45.748;12.106;2024-01-30T02:12:12;27.83;;;25.03;;
12631;SDS011;6381;45.748;12.106;2024-01-30T02:14:44;27.23;;;24.50;;
12631;SDS011;6381;45.748;12.106;2024-01-30T02:17:15;27.77;;;24.90;;
12631;SDS011;6381;45.748;12.106;2024-01-30T02:19:45;26.57;;;23.83;;
12631;SDS011;6381;45.748;12.106;2024-01-30T02:22:17;26.03;;;23.20;;
12631;SDS011;6381;45.748;12.106;2024-01-30T02:24:47;26.47;;;23.67;;
12631;SDS011;6381;45.748;12.106;2024-01-30T02:27:17;26.00;;;23.40;;
12631;SDS011;6381;45.748;12.106;2024-01-30T02:29:46;24.80;;;22.40;;
12631;SDS011;6381;45.748;12.106;2024-01-30T02:32:16;23.07;;;20.80;;
12631;SDS011;6381;45.748;12.106;2024-01-30T02:34:46;24.23;;;21.87;;
12631;SDS011;6381;45.748;12.106;2024-01-30T02:37:17;23.77;;;21.17;;
12631;SDS011;6381;45.748;12.106;2024-01-30T02:39:47;24.60;;;21.17;;
12631;SDS011;6381;45.748;12.106;2024-01-30T02:42:17;23.03;;;20.73;;
12631;SDS011;6381;45.748;12.106;2024-01-30T02:44:47;23.83;;;21.37;;
12631;SDS011;6381;45.748;12.106;2024-01-30T02:47:17;23.60;;;21.13;;
12631;SDS011;6381;45.748;12.106;2024-01-30T02:49:46;22.37;;;20.17;;
12631;SDS011;6381;45.748;12.106;2024-01-30T02:52:22;23.90;;;21.50;;
12631;SDS011;6381;45.748;12.106;2024-01-30T02:54:52;21.97;;;19.77;;
12631;SDS011;6381;45.748;12.106;2024-01-30T02:57:22;22.53;;;20.33;;
12631;SDS011;6381;45.748;12.106;2024-01-30T02:59:52;22.03;;;19.63;;
12631;SDS011;6381;45.748;12.106;2024-01-30T03:02:22;22.73;;;20.33;;
12631;SDS011;6381;45.748;12.106;2024-01-30T03:04:53;22.90;;;20.50;;
12631;SDS011;6381;45.748;12.106;2024-01-30T03:07:25;21.33;;;19.03;;
12631;SDS011;6381;45.748;12.106;2024-01-30T03:09:55;21.17;;;19.07;;
12631;SDS011;6381;45.748;12.106;2024-01-30T03:12:25;20.77;;;18.77;;
12631;SDS011;6381;45.748;12.106;2024-01-30T03:14:55;21.20;;;19.00;;
12631;SDS011;6381;45.748;12.106;2024-01-30T03:17:25;21.20;;;19.10;;
12631;SDS011;6381;45.748;12.106;2024-01-30T03:19:55;22.00;;;19.63;;
12631;SDS011;6381;45.748;12.106;2024-01-30T03:22:26;23.60;;;21.10;;
12631;SDS011;6381;45.748;12.106;2024-01-30T03:24:56;22.17;;;19.80;;
12631;SDS011;6381;45.748;12.106;2024-01-30T03:27:26;21.77;;;19.47;;
12631;SDS011;6381;45.748;12.106;2024-01-30T03:29:56;21.00;;;18.87;;
12631;SDS011;6381;45.748;12.106;2024-01-30T03:32:26;22.47;;;20.07;;
12631;SDS011;6381;45.748;12.106;2024-01-30T03:34:55;21.53;;;19.37;;
12631;SDS011;6381;45.748;12.106;2024-01-30T03:37:26;20.87;;;18.87;;
12631;SDS011;6381;45.748;12.106;2024-01-30T03:39:56;18.17;;;16.33;;
12631;SDS011;6381;45.748;12.106;2024-01-30T03:42:26;17.30;;;15.53;;
12631;SDS011;6381;45.748;12.106;2024-01-30T03:44:56;17.97;;;15.70;;
12631;SDS011;6381;45.748;12.106;2024-01-30T03:47:27;18.03;;;16.23;;
12631;SDS011;6381;45.748;12.106;2024-01-30T03:49:56;17.40;;;15.67;;
12631;SDS011;6381;45.748;12.106;2024-01-30T03:52:28;17.43;;;15.63;;
12631;SDS011;6381;45.748;12.106;2024-01-30T03:54:58;17.53;;;15.63;;
12631;SDS011;6381;45.748;12.106;2024-01-30T03:57:28;16.80;;;15.00;;
12631;SDS011;6381;45.748;12.106;2024-01-30T03:59:57;15.63;;;14.10;;
12631;SDS011;6381;45.748;12.106;2024-01-30T04:02:37;14.10;;;12.70;;
12631;SDS011;6381;45.748;12.106;2024-01-30T04:05:08;14.70;;;13.30;;
12631;SDS011;6381;45.748;12.106;2024-01-30T04:07:39;15.07;;;13.57;;
12631;SDS011;6381;45.748;12.106;2024-01-30T04:10:09;13.97;;;12.67;;
12631;SDS011;6381;45.748;12.106;2024-01-30T04:12:39;14.03;;;12.60;;
12631;SDS011;6381;45.748;12.106;2024-01-30T04:15:09;12.83;;;11.53;;
12631;SDS011;6381;45.748;12.106;2024-01-30T04:17:41;13.50;;;12.13;;
12631;SDS011;6381;45.748;12.106;2024-01-30T04:20:13;13.97;;;12.67;;
12631;SDS011;6381;45.748;12.106;2024-01-30T04:22:45;13.50;;;12.10;;
12631;SDS011;6381;45.748;12.106;2024-01-30T04:25:15;12.80;;;11.70;;
12631;SDS011;6381;45.748;12.106;2024-01-30T04:27:44;13.20;;;11.90;;
12631;SDS011;6381;45.748;12.106;2024-01-30T04:30:14;13.10;;;11.80;;
12631;SDS011;6381;45.748;12.106;2024-01-30T04:32:44;12.67;;;11.37;;
12631;SDS011;6381;45.748;12.106;2024-01-30T04:35:14;12.53;;;11.33;;
12631;SDS011;6381;45.748;12.106;2024-01-30T04:37:46;12.40;;;11.20;;
12631;SDS011;6381;45.748;12.106;2024-01-30T04:40:16;11.60;;;10.57;;
12631;SDS011;6381;45.748;12.106;2024-01-30T04:42:47;12.07;;;10.87;;
12631;SDS011;6381;45.748;12.106;2024-01-30T04:45:16;12.27;;;10.70;;
12631;SDS011;6381;45.748;12.106;2024-01-30T04:47:46;11.57;;;10.37;;
12631;SDS011;6381;45.748;12.106;2024-01-30T04:50:16;12.27;;;11.03;;
12631;SDS011;6381;45.748;12.106;2024-01-30T04:52:47;12.13;;;10.40;;
12631;SDS011;6381;45.748;12.106;2024-01-30T04:55:18;11.90;;;10.27;;
12631;SDS011;6381;45.748;12.106;2024-01-30T04:57:49;11.03;;;9.93;;
12631;SDS011;6381;45.748;12.106;2024-01-30T05:00:19;11.10;;;10.00;;
12631;SDS011;6381;45.748;12.106;2024-01-30T05:02:49;10.37;;;9.37;;
12631;SDS011;6381;45.748;12.106;2024-01-30T05:05:18;11.33;;;10.03;;
12631;SDS011;6381;45.748;12.106;2024-01-30T05:07:52;10.93;;;9.93;;
12631;SDS011;6381;45.748;12.106;2024-01-30T05:10:22;11.30;;;10.17;;
12631;SDS011;6381;45.748;12.106;2024-01-30T05:12:51;11.10;;;10.10;;
12631;SDS011;6381;45.748;12.106;2024-01-30T05:15:21;11.20;;;10.03;;
12631;SDS011;6381;45.748;12.106;2024-01-30T05:17:50;11.97;;;10.70;;
12631;SDS011;6381;45.748;12.106;2024-01-30T05:20:22;11.23;;;10.13;;
12631;SDS011;6381;45.748;12.106;2024-01-30T05:22:56;10.90;;;9.70;;
12631;SDS011;6381;45.748;12.106;2024-01-30T05:25:26;11.53;;;10.33;;
12631;SDS011;6381;45.748;12.106;2024-01-30T05:27:57;12.10;;;10.90;;
12631;SDS011;6381;45.748;12.106;2024-01-30T05:30:26;11.73;;;10.53;;
12631;SDS011;6381;45.748;12.106;2024-01-30T05:32:56;12.37;;;11.07;;
12631;SDS011;6381;45.748;12.106;2024-01-30T05:35:25;12.10;;;10.90;;
12631;SDS011;6381;45.748;12.106;2024-01-30T05:37:57;11.63;;;10.57;;
12631;SDS011;6381;45.748;12.106;2024-01-30T05:40:27;11.47;;;10.37;;
12631;SDS011;6381;45.748;12.106;2024-01-30T05:42:57;11.83;;;10.63;;
12631;SDS011;6381;45.748;12.106;2024-01-30T05:45:29;13.37;;;11.43;;
12631;SDS011;6381;45.748;12.106;2024-01-30T05:47:59;12.13;;;10.93;;
12631;SDS011;6381;45.748;12.106;2024-01-30T05:50:29;14.57;;;11.37;;
12631;SDS011;6381;45.748;12.106;2024-01-30T05:53:00;13.37;;;11.27;;
12631;SDS011;6381;45.748;12.106;2024-01-30T05:55:30;12.43;;;11.27;;
12631;SDS011;6381;45.748;12.106;2024-01-30T05:58:00;13.80;;;12.33;;
12631;SDS011;6381;45.748;12.106;2024-01-30T06:00:30;13.40;;;12.00;;
12631;SDS011;6381;45.748;12.106;2024-01-30T06:03:00;13.57;;;12.27;;
12631;SDS011;6381;45.748;12.106;2024-01-30T06:05:29;13.77;;;12.47;;
12631;SDS011;6381;45.748;12.106;2024-01-30T06:08:01;14.43;;;12.93;;
12631;SDS011;6381;45.748;12.106;2024-01-30T06:10:32;12.80;;;11.40;;
12631;SDS011;6381;45.748;12.106;2024-01-30T06:13:01;13.80;;;12.40;;
12631;SDS011;6381;45.748;12.106;2024-01-30T06:15:32;15.50;;;13.77;;
12631;SDS011;6381;45.748;12.106;2024-01-30T06:18:02;14.10;;;12.10;;
12631;SDS011;6381;45.748;12.106;2024-01-30T06:20:31;13.83;;;12.43;;
12631;SDS011;6381;45.748;12.106;2024-01-30T06:23:03;18.37;;;13.23;;
12631;SDS011;6381;45.748;12.106;2024-01-30T06:25:36;15.57;;;14.17;;
12631;SDS011;6381;45.748;12.106;2024-01-30T06:28:06;15.83;;;14.33;;
12631;SDS011;6381;45.748;12.106;2024-01-30T06:30:36;15.33;;;13.37;;
12631;SDS011;6381;45.748;12.106;2024-01-30T06:33:06;17.17;;;15.03;;
12631;SDS011;6381;45.748;12.106;2024-01-30T06:35:36;17.73;;;15.83;;
12631;SDS011;6381;45.748;12.106;2024-01-30T06:38:12;22.33;;;18.83;;
12631;SDS011;6381;45.748;12.106;2024-01-30T06:40:43;20.87;;;17.83;;
12631;SDS011;6381;45.748;12.106;2024-01-30T06:43:12;22.17;;;18.47;;
12631;SDS011;6381;45.748;12.106;2024-01-30T06:45:42;19.93;;;17.47;;
12631;SDS011;6381;45.748;12.106;2024-01-30T06:48:11;21.77;;;18.00;;
12631;SDS011;6381;45.748;12.106;2024-01-30T06:50:41;21.23;;;18.43;;
12631;SDS011;6381;45.748;12.106;2024-01-30T06:53:12;22.20;;;18.27;;
12631;SDS011;6381;45.748;12.106;2024-01-30T06:55:42;22.60;;;17.60;;
12631;SDS011;6381;45.748;12.106;2024-01-30T06:58:12;23.03;;;17.67;;
12631;SDS011;6381;45.748;12.106;2024-01-30T07:00:41;24.20;;;18.30;;
12631;SDS011;6381;45.748;12.106;2024-01-30T07:03:11;19.47;;;17.23;;
12631;SDS011;6381;45.748;12.106;2024-01-30T07:05:41;19.97;;;17.80;;
12631;SDS011;6381;45.748;12.106;2024-01-30T07:08:12;23.43;;;19.20;;
12631;SDS011;6381;45.748;12.106;2024-01-30T07:10:44;23.03;;;19.33;;
12631;SDS011;6381;45.748;12.106;2024-01-30T07:13:14;20.20;;;18.10;;
12631;SDS011;6381;45.748;12.106;2024-01-30T07:15:44;18.47;;;16.50;;
12631;SDS011;6381;45.748;12.106;2024-01-30T07:18:15;19.43;;;16.73;;
12631;SDS011;6381;45.748;12.106;2024-01-30T07:20:45;18.87;;;16.43;;
12631;SDS011;6381;45.748;12.106;2024-01-30T07:23:16;26.30;;;22.73;;
12631;SDS011;6381;45.748;12.106;2024-01-30T07:25:46;33.33;;;29.73;;
12631;SDS011;6381;45.748;12.106;2024-01-30T07:28:17;27.90;;;24.73;;
12631;SDS011;6381;45.748;12.106;2024-01-30T07:30:48;26.13;;;22.23;;
12631;SDS011;6381;45.748;12.106;2024-01-30T07:33:18;25.83;;;21.20;;
12631;SDS011;6381;45.748;12.106;2024-01-30T07:35:51;23.87;;;21.27;;
12631;SDS011;6381;45.748;12.106;2024-01-30T07:38:23;25.77;;;23.10;;
12631;SDS011;6381;45.748;12.106;2024-01-30T07:40:56;30.57;;;27.33;;
12631;SDS011;6381;45.748;12.106;2024-01-30T07:43:27;33.73;;;30.03;;
12631;SDS011;6381;45.748;12.106;2024-01-30T07:45:59;32.97;;;29.47;;
12631;SDS011;6381;45.748;12.106;2024-01-30T07:48:30;32.17;;;25.67;;
12631;SDS011;6381;45.748;12.106;2024-01-30T07:51:08;32.93;;;23.13;;
12631;SDS011;6381;45.748;12.106;2024-01-30T07:53:39;29.60;;;23.30;;
12631;SDS011;6381;45.748;12.106;2024-01-30T07:56:17;30.90;;;24.80;;
12631;SDS011;6381;45.748;12.106;2024-01-30T07:58:47;27.97;;;22.20;;
12631;SDS011;6381;45.748;12.106;2024-01-30T08:01:18;24.93;;;22.23;;
12631;SDS011;6381;45.748;12.106;2024-01-30T08:03:48;27.07;;;23.37;;
12631;SDS011;6381;45.748;12.106;2024-01-30T08:06:18;23.40;;;20.87;;
12631;SDS011;6381;45.748;12.106;2024-01-30T08:08:49;23.60;;;19.93;;
12631;SDS011;6381;45.748;12.106;2024-01-30T08:11:20;21.93;;;19.57;;
12631;SDS011;6381;45.748;12.106;2024-01-30T08:13:53;27.70;;;21.93;;
12631;SDS011;6381;45.748;12.106;2024-01-30T08:16:23;25.10;;;20.50;;
12631;SDS011;6381;45.748;12.106;2024-01-30T08:18:53;22.13;;;19.47;;
12631;SDS011;6381;45.748;12.106;2024-01-30T08:21:25;36.47;;;28.57;;
12631;SDS011;6381;45.748;12.106;2024-01-30T08:23:57;30.13;;;23.53;;
12631;SDS011;6381;45.748;12.106;2024-01-30T08:26:26;26.67;;;21.20;;
12631;SDS011;6381;45.748;12.106;2024-01-30T08:28:56;25.03;;;21.27;;
12631;SDS011;6381;45.748;12.106;2024-01-30T08:31:26;25.97;;;20.20;;
12631;SDS011;6381;45.748;12.106;2024-01-30T08:33:56;23.83;;;19.67;;
12631;SDS011;6381;45.748;12.106;2024-01-30T08:36:26;25.07;;;19.97;;
12631;SDS011;6381;45.748;12.106;2024-01-30T08:38:57;28.27;;;20.57;;
12631;SDS011;6381;45.748;12.106;2024-01-30T08:41:31;29.80;;;21.00;;
12631;SDS011;6381;45.748;12.106;2024-01-30T08:44:01;36.80;;;23.33;;
12631;SDS011;6381;45.748;12.106;2024-01-30T08:46:31;40.10;;;25.57;;
12631;SDS011;6381;45.748;12.106;2024-01-30T08:49:01;35.63;;;24.07;;
12631;SDS011;6381;45.748;12.106;2024-01-30T08:51:32;33.13;;;24.23;;
12631;SDS011;6381;45.748;12.106;2024-01-30T08:54:03;32.33;;;25.17;;
12631;SDS011;6381;45.748;12.106;2024-01-30T08:56:33;30.93;;;25.30;;
12631;SDS011;6381;45.748;12.106;2024-01-30T08:59:03;33.03;;;26.10;;
12631;SDS011;6381;45.748;12.106;2024-01-30T09:01:34;32.47;;;25.20;;
12631;SDS011;6381;45.748;12.106;2024-01-30T09:04:06;37.57;;;27.93;;
12631;SDS011;6381;45.748;12.106;2024-01-30T09:06:36;35.97;;;26.60;;
12631;SDS011;6381;45.748;12.106;2024-01-30T09:09:08;37.70;;;27.83;;
12631;SDS011;6381;45.748;12.106;2024-01-30T09:11:38;33.43;;;26.33;;
12631;SDS011;6381;45.748;12.106;2024-01-30T09:14:08;35.33;;;26.40;;
12631;SDS011;6381;45.748;12.106;2024-01-30T09:16:39;34.77;;;28.63;;
12631;SDS011;6381;45.748;12.106;2024-01-30T09:19:08;34.97;;;27.57;;
12631;SDS011;6381;45.748;12.106;2024-01-30T09:21:38;36.07;;;27.00;;
12631;SDS011;6381;45.748;12.106;2024-01-30T09:24:09;33.37;;;25.63;;
12631;SDS011;6381;45.748;12.106;2024-01-30T09:26:39;32.27;;;26.20;;
12631;SDS011;6381;45.748;12.106;2024-01-30T09:29:09;36.53;;;27.00;;
12631;SDS011;6381;45.748;12.106;2024-01-30T09:31:39;35.10;;;28.50;;
12631;SDS011;6381;45.748;12.106;2024-01-30T09:34:12;36.17;;;28.53;;
12631;SDS011;6381;45.748;12.106;2024-01-30T09:36:43;33.27;;;26.87;;
12631;SDS011;6381;45.748;12.106;2024-01-30T09:39:14;33.43;;;26.23;;
12631;SDS011;6381;45.748;12.106;2024-01-30T09:41:48;28.20;;;21.00;;
12631;SDS011;6381;45.748;12.106;2024-01-30T09:44:23;24.77;;;21.80;;
12631;SDS011;6381;45.748;12.106;2024-01-30T09:46:56;21.90;;;18.57;;
12631;SDS011;6381;45.748;12.106;2024-01-30T09:49:31;25.43;;;21.97;;
12631;SDS011;6381;45.748;12.106;2024-01-30T09:52:01;26.33;;;21.77;;
12631;SDS011;6381;45.748;12.106;2024-01-30T09:54:34;28.63;;;22.50;;
12631;SDS011;6381;45.748;12.106;2024-01-30T09:57:04;25.00;;;21.97;;
12631;SDS011;6381;45.748;12.106;2024-01-30T09:59:35;24.80;;;21.30;;
12631;SDS011;6381;45.748;12.106;2024-01-30T10:02:04;26.90;;;22.07;;
12631;SDS011;6381;45.748;12.106;2024-01-30T10:04:36;23.70;;;20.30;;
12631;SDS011;6381;45.748;12.106;2024-01-30T10:07:06;26.30;;;20.90;;
12631;SDS011;6381;45.748;12.106;2024-01-30T10:09:39;27.93;;;20.77;;
12631;SDS011;6381;45.748;12.106;2024-01-30T10:12:09;23.83;;;19.73;;
12631;SDS011;6381;45.748;12.106;2024-01-30T10:14:39;25.63;;;20.33;;
12631;SDS011;6381;45.748;12.106;2024-01-30T10:17:09;23.33;;;18.83;;
12631;SDS011;6381;45.748;12.106;2024-01-30T10:19:53;24.47;;;19.77;;
12631;SDS011;6381;45.748;12.106;2024-01-30T10:22:24;27.13;;;19.87;;
12631;SDS011;6381;45.748;12.106;2024-01-30T10:24:56;24.47;;;19.70;;
12631;SDS011;6381;45.748;12.106;2024-01-30T10:27:28;25.30;;;20.97;;
12631;SDS011;6381;45.748;12.106;2024-01-30T10:29:58;31.07;;;24.43;;
12631;SDS011;6381;45.748;12.106;2024-01-30T10:32:28;31.97;;;27.80;;
12631;SDS011;6381;45.748;12.106;2024-01-30T10:34:58;35.50;;;29.47;;
12631;SDS011;6381;45.748;12.106;2024-01-30T10:37:28;32.47;;;25.93;;
12631;SDS011;6381;45.748;12.106;2024-01-30T10:40:04;32.97;;;25.33;;
12631;SDS011;6381;45.748;12.106;2024-01-30T10:42:36;29.23;;;24.07;;
12631;SDS011;6381;45.748;12.106;2024-01-30T10:45:08;30.73;;;23.77;;
12631;SDS011;6381;45.748;12.106;2024-01-30T10:47:40;27.63;;;21.73;;
12631;SDS011;6381;45.748;12.106;2024-01-30T10:50:12;22.83;;;19.67;;
12631;SDS011;6381;45.748;12.106;2024-01-30T10:52:42;27.40;;;20.70;;
12631;SDS011;6381;45.748;12.106;2024-01-30T10:55:13;22.57;;;19.87;;
12631;SDS011;6381;45.748;12.106;2024-01-30T10:57:45;23.50;;;19.03;;
12631;SDS011;6381;45.748;12.106;2024-01-30T11:00:15;23.20;;;19.00;;
12631;SDS011;6381;45.748;12.106;2024-01-30T11:02:49;23.30;;;18.50;;
12631;SDS011;6381;45.748;12.106;2024-01-30T11:05:23;21.23;;;17.80;;
12631;SDS011;6381;45.748;12.106;2024-01-30T11:08:09;20.90;;;18.13;;
12631;SDS011;6381;45.748;12.106;2024-01-30T11:10:48;21.00;;;18.50;;
12631;SDS011;6381;45.748;12.106;2024-01-30T11:13:18;20.13;;;17.93;;
12631;SDS011;6381;45.748;12.106;2024-01-30T11:15:51;21.23;;;17.03;;
12631;SDS011;6381;45.748;12.106;2024-01-30T11:18:24;20.30;;;17.57;;
12631;SDS011;6381;45.748;12.106;2024-01-30T11:20:55;21.63;;;17.07;;
12631;SDS011;6381;45.748;12.106;2024-01-30T11:23:26;21.93;;;17.03;;
12631;SDS011;6381;45.748;12.106;2024-01-30T11:25:57;22.07;;;17.67;;
12631;SDS011;6381;45.748;12.106;2024-01-30T11:28:31;21.07;;;17.40;;
12631;SDS011;6381;45.748;12.106;2024-01-30T11:31:03;24.27;;;18.73;;
12631;SDS011;6381;45.748;12.106;2024-01-30T11:33:34;24.40;;;18.13;;
12631;SDS011;6381;45.748;12.106;2024-01-30T11:36:04;28.77;;;18.77;;
12631;SDS011;6381;45.748;12.106;2024-01-30T11:38:35;25.23;;;18.77;;
12631;SDS011;6381;45.748;12.106;2024-01-30T11:41:09;21.00;;;18.50;;
12631;SDS011;6381;45.748;12.106;2024-01-30T11:43:40;20.03;;;17.33;;
12631;SDS011;6381;45.748;12.106;2024-01-30T11:46:09;25.17;;;18.73;;
12631;SDS011;6381;45.748;12.106;2024-01-30T11:48:39;21.03;;;18.20;;
12631;SDS011;6381;45.748;12.106;2024-01-30T11:51:09;25.33;;;18.77;;
12631;SDS011;6381;45.748;12.106;2024-01-30T11:53:39;24.00;;;18.90;;
12631;SDS011;6381;45.748;12.106;2024-01-30T11:56:10;22.43;;;17.80;;
12631;SDS011;6381;45.748;12.106;2024-01-30T11:58:42;24.90;;;18.43;;
12631;SDS011;6381;45.748;12.106;2024-01-30T12:01:12;21.77;;;19.40;;
12631;SDS011;6381;45.748;12.106;2024-01-30T12:03:42;21.63;;;18.83;;
12631;SDS011;6381;45.748;12.106;2024-01-30T12:06:12;23.77;;;19.77;;
12631;SDS011;6381;45.748;12.106;2024-01-30T12:08:42;21.37;;;18.93;;
12631;SDS011;6381;45.748;12.106;2024-01-30T12:11:13;21.57;;;18.63;;
12631;SDS011;6381;45.748;12.106;2024-01-30T12:13:43;22.47;;;19.60;;
12631;SDS011;6381;45.748;12.106;2024-01-30T12:16:12;28.70;;;21.77;;
12631;SDS011;6381;45.748;12.106;2024-01-30T12:18:42;28.93;;;23.27;;
12631;SDS011;6381;45.748;12.106;2024-01-30T12:21:12;28.90;;;25.33;;
12631;SDS011;6381;45.748;12.106;2024-01-30T12:23:46;26.37;;;21.77;;
12631;SDS011;6381;45.748;12.106;2024-01-30T12:26:17;21.37;;;19.03;;
12631;SDS011;6381;45.748;12.106;2024-01-30T12:28:47;24.77;;;19.30;;
12631;SDS011;6381;45.748;12.106;2024-01-30T12:31:17;24.87;;;21.63;;
12631;SDS011;6381;45.748;12.106;2024-01-30T12:33:49;26.30;;;21.00;;
12631;SDS011;6381;45.748;12.106;2024-01-30T12:36:18;23.90;;;20.70;;
12631;SDS011;6381;45.748;12.106;2024-01-30T12:38:50;25.67;;;22.17;;
12631;SDS011;6381;45.748;12.106;2024-01-30T12:41:21;31.40;;;24.93;;
12631;SDS011;6381;45.748;12.106;2024-01-30T12:43:56;28.33;;;22.73;;
12631;SDS011;6381;45.748;12.106;2024-01-30T12:46:27;30.00;;;25.10;;
12631;SDS011;6381;45.748;12.106;2024-01-30T12:48:57;26.93;;;24.03;;
12631;SDS011;6381;45.748;12.106;2024-01-30T12:51:27;30.80;;;23.90;;
12631;SDS011;6381;45.748;12.106;2024-01-30T12:53:57;26.73;;;23.30;;
12631;SDS011;6381;45.748;12.106;2024-01-30T12:56:28;25.80;;;21.97;;
12631;SDS011;6381;45.748;12.106;2024-01-30T12:58:58;25.67;;;21.23;;
12631;SDS011;6381;45.748;12.106;2024-01-30T13:01:28;25.10;;;20.23;;
12631;SDS011;6381;45.748;12.106;2024-01-30T13:03:58;23.63;;;19.23;;
12631;SDS011;6381;45.748;12.106;2024-01-30T13:06:28;22.57;;;17.97;;
12631;SDS011;6381;45.748;12.106;2024-01-30T13:08:58;21.60;;;18.43;;
12631;SDS011;6381;45.748;12.106;2024-01-30T13:11:29;19.63;;;16.85;;
12631;SDS011;6381;45.748;12.106;2024-01-30T13:13:59;22.02;;;17.38;;
12631;SDS011;6381;45.748;12.106;2024-01-30T13:16:30;22.77;;;16.63;;
12631;SDS011;6381;45.748;12.106;2024-01-30T13:19:00;19.65;;;17.52;;
12631;SDS011;6381;45.748;12.106;2024-01-30T13:21:30;20.48;;;18.27;;
12631;SDS011;6381;45.748;12.106;2024-01-30T13:23:59;21.33;;;17.83;;
12631;SDS011;6381;45.748;12.106;2024-01-30T13:26:33;21.27;;;19.02;;
12631;SDS011;6381;45.748;12.106;2024-01-30T13:29:03;18.15;;;16.05;;
12631;SDS011;6381;45.748;12.106;2024-01-30T13:31:33;18.65;;;14.75;;
12631;SDS011;6381;45.748;12.106;2024-01-30T13:34:03;16.73;;;14.13;;
12631;SDS011;6381;45.748;12.106;2024-01-30T13:36:35;16.70;;;14.48;;
12631;SDS011;6381;45.748;12.106;2024-01-30T13:39:05;17.13;;;15.38;;
12631;SDS011;6381;45.748;12.106;2024-01-30T13:41:38;15.93;;;14.23;;
12631;SDS011;6381;45.748;12.106;2024-01-30T13:44:08;18.00;;;15.68;;
12631;SDS011;6381;45.748;12.106;2024-01-30T13:46:38;17.15;;;15.35;;
12631;SDS011;6381;45.748;12.106;2024-01-30T13:49:07;16.30;;;14.15;;
12631;SDS011;6381;45.748;12.106;2024-01-30T13:51:37;16.38;;;14.55;;
12631;SDS011;6381;45.748;12.106;2024-01-30T13:54:07;16.83;;;14.70;;
12631;SDS011;6381;45.748;12.106;2024-01-30T13:56:38;19.33;;;14.98;;
12631;SDS011;6381;45.748;12.106;2024-01-30T13:59:08;15.43;;;13.82;;
12631;SDS011;6381;45.748;12.106;2024-01-30T14:01:38;15.73;;;14.00;;
12631;SDS011;6381;45.748;12.106;2024-01-30T14:04:08;16.65;;;13.65;;
12631;SDS011;6381;45.748;12.106;2024-01-30T14:06:41;15.32;;;13.73;;
12631;SDS011;6381;45.748;12.106;2024-01-30T14:09:23;15.60;;;13.15;;
12631;SDS011;6381;45.748;12.106;2024-01-30T14:11:53;18.30;;;13.38;;
12631;SDS011;6381;45.748;12.106;2024-01-30T14:14:23;18.05;;;13.82;;
12631;SDS011;6381;45.748;12.106;2024-01-30T14:16:53;16.88;;;13.93;;
12631;SDS011;6381;45.748;12.106;2024-01-30T14:19:23;17.75;;;13.93;;
12631;SDS011;6381;45.748;12.106;2024-01-30T14:21:53;14.63;;;13.13;;
12631;SDS011;6381;45.748;12.106;2024-01-30T14:24:22;18.75;;;14.80;;
12631;SDS011;6381;45.748;12.106;2024-01-30T14:26:53;19.60;;;13.68;;
12631;SDS011;6381;45.748;12.106;2024-01-30T14:29:23;17.48;;;15.25;;
12631;SDS011;6381;45.748;12.106;2024-01-30T14:31:53;18.98;;;14.48;;
12631;SDS011;6381;45.748;12.106;2024-01-30T14:34:24;17.17;;;15.18;;
12631;SDS011;6381;45.748;12.106;2024-01-30T14:36:54;17.13;;;15.30;;
12631;SDS011;6381;45.748;12.106;2024-01-30T14:39:24;17.52;;;15.45;;
12631;SDS011;6381;45.748;12.106;2024-01-30T14:41:55;18.10;;;15.85;;